Conway, WA (98238)

3:55 PM PDT on September 30, 2014 (GMT -0700)
Maddox Creek | Change Station
CLOSE
Current Station
Personal Weather Station
Location: Mount Vernon, WA
Elevation: 404 ft
Nearby Weather Stations

Elev 404 ft 48.41 °N, 122.30 °W | Updated 10 seconds ago

Mostly Cloudy
Mostly Cloudy
64.4 °F
Feels Like 64.4 °F
N
0.2
Wind Variable Wind from SE
Gusts 2.5 mph

Today
High -- | Low -- °F
--% Chance of Precip.
Yesterday
High -- | Low -- °F
Precip. -- in
7:07 AM 6:50 PM
Waxing Crescent, 41% visible
Pressure 30.10 in
Visibility 10.0 miles
Clouds Overcast 7000 ft
Dew Point 50 °F
Humidity 60%
Rainfall 0.00 in
Snow Depth 0 in , 0 in , 0 in
UV 1 out of 12
Pollen .40 out of 12
PM2.5 Good
Flu Activity Not available.
METAR KBVS 302235Z AUTO 21008KT 10SM OVC070 19/11 A3010 RMK A01 P000

More Conditions Fewer Conditions

Pressure 30.10 in
Visibility 10.0 miles
Clouds Overcast 7000 ft
Dew Point 50 °F
Humidity 60%
Rainfall 0.00 in
Snow Depth 0 in , 0 in , 0 in
UV 1 out of 12
Pollen .40 out of 12
PM2.5 Good
Flu Activity Not available.
METAR KBVS 302235Z AUTO 21008KT 10SM OVC070 19/11 A3010 RMK A01 P000

More Conditions Fewer Conditions

10-Day Weather Forecast

Almanac

Astronomy

Sep. 30, 2014 Rise Set
Actual Time 7:07 AM PDT 6:50 PM PDT
Civil Twilight 6:36 AM PDT 7:21 PM PDT
Nautical Twilight 5:59 AM PDT 7:57 PM PDT
Astronomical Twilight 5:22 AM PDT 8:34 PM PDT
Moon 1:41 PM PDT 11:04 PM PDT
Length of Visible Light 12h 45m
Length of Day
11h 42m
Tomorrow will be 3m 30s shorter.
Waxing Crescent, 41% of the Moon is Illuminated
Today
Waxing Crescent
Oct 1
First Quarter
Oct 8
Full
Oct 15
Last Quarter
Oct 23
New

Today's Extremes

State Highs State Lows

Community

WunderPhotos

Upload Photos

1,757,767 photos uploaded!

Nearby

Air Quality

  Air Quality AQ Index Pollutant
Yesterday Good
OZONE
Yesterday Good
PM2.5
Current Good
PM2.5
Tuesday Good
OZONE
Tuesday Good
PM2.5
Wednesday Good
OZONE
Wednesday Good
PM2.5
Thursday Good
OZONE
Thursday Good
PM2.5
Friday Good
OZONE
Friday Good
PM2.5

Snow Depth

Station Depth Elevation
Trough 0 in 5300 ft
Bunchgrass Meadow 0 in 5000 ft
Dungeness 0 in 4100 ft
Alpine Meadows 0 in 3500 ft
Mount Gardner 0 in 3000 ft

Earthquake Activity

City Distance Mag. Time & Date
No recent earthquake activity has been reported nearby.
Minimum magnitude displayed is 2.5.

Coastal Water Temperatures

Place Temperature
Port Townsend, WA 52.0 °F
Friday Harbor, WA 52.0 °F
Port Angeles, WA 51.1 °F

Nearby Weather Stations